createdAt,value
2022-10-04T00:00:49.932Z,96728
2022-10-04T00:01:49.968Z,96729
2022-10-04T00:02:49.987Z,96730
2022-10-04T00:05:49.959Z,96726
2022-10-04T00:06:49.925Z,96727
2022-10-04T00:07:49.956Z,96724
2022-10-04T00:08:49.909Z,96724
2022-10-04T00:09:49.938Z,96728
2022-10-04T00:10:50.013Z,96732
2022-10-04T00:12:49.962Z,96739
2022-10-04T00:13:49.928Z,96741
2022-10-04T00:14:49.953Z,96743
2022-10-04T00:20:49.992Z,96740
2022-10-04T00:21:49.970Z,96740
2022-10-04T00:22:49.988Z,96743
2022-10-04T00:23:49.976Z,96748
2022-10-04T00:24:49.972Z,96746
2022-10-04T00:25:50.008Z,96748
2022-10-04T00:26:50.006Z,96745
2022-10-04T00:27:50.038Z,96745
2022-10-04T00:29:49.993Z,96744
2022-10-04T00:30:49.983Z,96737
2022-10-04T00:32:50.024Z,96734
2022-10-04T00:33:50.015Z,96730
2022-10-04T00:35:50.000Z,96731
2022-10-04T00:37:49.998Z,96734
2022-10-04T00:38:50.048Z,96738
2022-10-04T00:39:49.995Z,96738
2022-10-04T00:40:50.032Z,96734
2022-10-04T00:41:50.028Z,96733
2022-10-04T00:42:50.031Z,96733
2022-10-04T00:43:50.042Z,96728
2022-10-04T00:44:50.044Z,96728
2022-10-04T00:45:50.134Z,96729
2022-10-04T00:46:50.058Z,96729
2022-10-04T00:47:50.044Z,96732
2022-10-04T00:48:50.040Z,96732
2022-10-04T00:52:50.068Z,96736
2022-10-04T00:53:50.061Z,96735
2022-10-04T00:54:50.043Z,96735
2022-10-04T00:55:53.042Z,96736
2022-10-04T00:56:50.070Z,96733
2022-10-04T00:59:50.095Z,96734
2022-10-04T01:00:50.117Z,96735
2022-10-04T01:01:50.114Z,96735
2022-10-04T01:02:50.089Z,96727
2022-10-04T01:03:50.064Z,96730
2022-10-04T01:04:50.069Z,96728
2022-10-04T01:05:50.128Z,96728
2022-10-04T01:06:50.081Z,96732
2022-10-04T01:10:50.079Z,96730
2022-10-04T01:11:50.129Z,96728
2022-10-04T01:12:50.096Z,96728
2022-10-04T01:15:50.161Z,96724
2022-10-04T01:16:50.113Z,96719
2022-10-04T01:17:50.129Z,96721
2022-10-04T01:18:50.109Z,96719
2022-10-04T01:19:50.100Z,96717
2022-10-04T01:20:50.120Z,96714
2022-10-04T01:22:50.132Z,96709
2022-10-04T01:23:50.174Z,96709
2022-10-04T01:25:50.138Z,96707
2022-10-04T01:26:50.152Z,96710
2022-10-04T01:28:50.134Z,96708
2022-10-04T01:29:51.790Z,96707
2022-10-04T01:31:50.231Z,96702
2022-10-04T01:32:53.328Z,96701
2022-10-04T01:33:50.131Z,96701
2022-10-04T01:34:50.166Z,96700
2022-10-04T01:35:50.182Z,96695
2022-10-04T01:36:50.166Z,96698
2022-10-04T01:37:50.146Z,96700
2022-10-04T01:39:50.197Z,96702
2022-10-04T01:40:50.174Z,96696
2022-10-04T01:41:50.244Z,96697
2022-10-04T01:43:50.191Z,96697
2022-10-04T01:44:50.178Z,96697
2022-10-04T01:45:50.231Z,96699
2022-10-04T01:46:50.253Z,96699
2022-10-04T01:48:51.644Z,96695
2022-10-04T01:49:50.199Z,96694
2022-10-04T01:51:50.200Z,96693
2022-10-04T01:54:50.248Z,96688
2022-10-04T01:55:50.239Z,96692
2022-10-04T01:56:50.205Z,96692
2022-10-04T01:58:50.222Z,96691
2022-10-04T02:01:50.228Z,96687
2022-10-04T02:02:50.213Z,96691
2022-10-04T02:03:50.221Z,96683
2022-10-04T02:04:50.254Z,96683
2022-10-04T02:08:50.242Z,96678
2022-10-04T02:09:53.616Z,96679
2022-10-04T02:11:50.283Z,96678
2022-10-04T02:13:50.245Z,96684
2022-10-04T02:14:50.277Z,96686
2022-10-04T02:16:50.262Z,96687
2022-10-04T02:17:50.230Z,96687
2022-10-04T02:18:50.239Z,96688
2022-10-04T02:19:50.237Z,96689
2022-10-04T02:20:50.300Z,96690
2022-10-04T02:22:50.298Z,96694
2022-10-04T02:24:50.290Z,96693
2022-10-04T02:26:50.324Z,96692
2022-10-04T02:27:50.306Z,96694
2022-10-04T02:30:50.384Z,96695
2022-10-04T02:32:50.334Z,96692
2022-10-04T02:33:50.290Z,96689
2022-10-04T02:34:50.346Z,96689
2022-10-04T02:35:50.300Z,96689
2022-10-04T02:37:50.304Z,96686
2022-10-04T02:38:50.337Z,96686
2022-10-04T02:39:50.307Z,96686
2022-10-04T02:40:50.321Z,96686
2022-10-04T02:44:50.327Z,96690
2022-10-04T02:45:50.332Z,96688
2022-10-04T02:46:54.067Z,96687
2022-10-04T02:48:50.333Z,96680
2022-10-04T02:49:50.338Z,96681
2022-10-04T02:51:50.365Z,96682
2022-10-04T02:52:50.348Z,96675
2022-10-04T02:54:50.357Z,96670
2022-10-04T02:56:50.354Z,96669
2022-10-04T02:59:50.403Z,96667
2022-10-04T03:00:50.468Z,96664
2022-10-04T03:01:50.413Z,96663
2022-10-04T03:02:50.428Z,96665
2022-10-04T03:03:50.355Z,96665
2022-10-04T03:05:50.418Z,96662
2022-10-04T03:06:50.374Z,96660
2022-10-04T03:10:50.408Z,96665
2022-10-04T03:11:50.417Z,96665
2022-10-04T03:16:50.407Z,96658
2022-10-04T03:17:50.432Z,96654
2022-10-04T03:18:50.432Z,96653
2022-10-04T03:19:50.410Z,96652
2022-10-04T03:20:50.432Z,96655
2022-10-04T03:21:50.412Z,96655
2022-10-04T03:22:50.421Z,96657
2022-10-04T03:23:54.463Z,96662
2022-10-04T03:24:50.444Z,96662
2022-10-04T03:26:50.421Z,96664
2022-10-04T03:27:50.478Z,96667
2022-10-04T03:28:50.457Z,96667
2022-10-04T03:32:50.476Z,96662
2022-10-04T03:33:50.444Z,96661
2022-10-04T03:34:50.453Z,96661
2022-10-04T03:36:50.453Z,96659
2022-10-04T03:37:50.454Z,96666
2022-10-04T03:38:50.494Z,96664
2022-10-04T03:39:50.440Z,96664
2022-10-04T03:40:50.449Z,96665
2022-10-04T03:41:50.489Z,96666
2022-10-04T03:44:50.499Z,96667
2022-10-04T03:46:50.503Z,96668
2022-10-04T03:49:51.159Z,96678
2022-10-04T03:50:50.506Z,96678
2022-10-04T03:51:50.481Z,96674
2022-10-04T03:52:50.506Z,96678
2022-10-04T03:53:50.494Z,96676
2022-10-04T03:55:50.492Z,96675
2022-10-04T03:56:50.544Z,96675
2022-10-04T03:57:50.521Z,96677
2022-10-04T03:58:50.511Z,96675
2022-10-04T03:59:50.496Z,96675
2022-10-04T04:00:54.445Z,96677
2022-10-04T04:01:50.564Z,96672
2022-10-04T04:05:50.566Z,96668
2022-10-04T04:06:50.534Z,96666
2022-10-04T04:07:50.531Z,96666
2022-10-04T04:08:50.531Z,96665
2022-10-04T04:09:50.540Z,96669
2022-10-04T04:10:50.548Z,96666
2022-10-04T04:11:50.564Z,96666
2022-10-04T04:12:50.558Z,96665
2022-10-04T04:13:50.560Z,96663
2022-10-04T04:14:50.560Z,96663
2022-10-04T04:15:50.631Z,96665
2022-10-04T04:17:50.611Z,96664
2022-10-04T04:18:50.562Z,96665
2022-10-04T04:20:50.535Z,96665
2022-10-04T04:21:50.569Z,96664
2022-10-04T04:22:50.568Z,96662
2022-10-04T04:23:50.593Z,96666
2022-10-04T04:24:50.581Z,96666
2022-10-04T04:25:50.577Z,96666
2022-10-04T04:26:50.561Z,96666
2022-10-04T04:27:50.622Z,96669
2022-10-04T04:30:50.627Z,96667
2022-10-04T04:31:50.623Z,96667
2022-10-04T04:35:50.607Z,96667
2022-10-04T04:36:50.631Z,96666
2022-10-04T04:40:50.617Z,96661
2022-10-04T04:41:51.002Z,96664
2022-10-04T04:43:50.652Z,96658
2022-10-04T04:46:08.460Z,96656
2022-10-04T04:46:50.668Z,96660
2022-10-04T04:47:50.617Z,96662
2022-10-04T04:48:50.617Z,96662
2022-10-04T04:51:50.680Z,96663
2022-10-04T04:52:50.656Z,96664
2022-10-04T04:53:50.643Z,96664
2022-10-04T04:54:50.639Z,96664
2022-10-04T04:56:03.404Z,96664
2022-10-04T04:56:50.636Z,96668
2022-10-04T04:58:50.698Z,96670
2022-10-04T04:59:50.667Z,96674
2022-10-04T05:01:50.759Z,96677
2022-10-04T05:04:50.688Z,96680
2022-10-04T05:08:50.684Z,96682
2022-10-04T05:09:50.735Z,96688
2022-10-04T05:10:50.712Z,96691
2022-10-04T05:11:50.707Z,96688
2022-10-04T05:14:54.919Z,96690
2022-10-04T05:15:50.708Z,96690
2022-10-04T05:17:50.711Z,96691
2022-10-04T05:18:50.705Z,96691
2022-10-04T05:19:50.723Z,96690
2022-10-04T05:21:50.744Z,96692
2022-10-04T05:22:50.723Z,96692
2022-10-04T05:23:50.717Z,96689
2022-10-04T05:25:50.732Z,96687
2022-10-04T05:26:50.733Z,96686
2022-10-04T05:27:50.819Z,96688
2022-10-04T05:28:50.781Z,96682
2022-10-04T05:29:50.722Z,96682
2022-10-04T05:30:50.752Z,96679
2022-10-04T05:31:50.786Z,96679
2022-10-04T05:32:50.858Z,96681
2022-10-04T05:33:50.801Z,96683
2022-10-04T05:34:50.760Z,96683
2022-10-04T05:35:50.780Z,96687
2022-10-04T05:36:50.776Z,96684
2022-10-04T05:37:50.797Z,96685
2022-10-04T05:38:50.823Z,96687
2022-10-04T05:39:50.799Z,96684
2022-10-04T05:40:50.813Z,96685
2022-10-04T05:41:50.779Z,96685
2022-10-04T05:42:50.800Z,96684
2022-10-04T05:43:50.773Z,96681
2022-10-04T05:44:50.842Z,96683
2022-10-04T05:45:50.851Z,96683
2022-10-04T05:46:50.771Z,96682
2022-10-04T05:47:50.798Z,96689
2022-10-04T05:48:50.778Z,96689
2022-10-04T05:49:50.782Z,96689
2022-10-04T05:50:50.818Z,96689
2022-10-04T05:51:55.740Z,96689
2022-10-04T05:52:50.822Z,96686
2022-10-04T05:53:50.800Z,96686
2022-10-04T05:54:50.806Z,96687
2022-10-04T05:57:50.821Z,96686
2022-10-04T05:58:50.810Z,96686
2022-10-04T05:59:50.811Z,96689
2022-10-04T06:00:50.907Z,96692
2022-10-04T06:01:50.938Z,96690
2022-10-04T06:02:50.883Z,96693
2022-10-04T06:03:50.840Z,96690
2022-10-04T06:04:50.829Z,96690
2022-10-04T06:05:50.802Z,96690
2022-10-04T06:06:50.813Z,96688
2022-10-04T06:07:50.845Z,96690
2022-10-04T06:08:50.871Z,96692
2022-10-04T06:09:50.805Z,96692
2022-10-04T06:10:50.819Z,96693
2022-10-04T06:11:50.828Z,96694
2022-10-04T06:12:50.833Z,96690
2022-10-04T06:13:50.820Z,96690
2022-10-04T06:14:50.867Z,96691
2022-10-04T06:15:50.840Z,96691
2022-10-04T06:16:50.901Z,96692
2022-10-04T06:17:50.844Z,96692
2022-10-04T06:18:50.859Z,96693
2022-10-04T06:20:50.902Z,96701
2022-10-04T06:22:50.875Z,96706
2022-10-04T06:23:50.879Z,96706
2022-10-04T06:24:50.865Z,96712
2022-10-04T06:25:51.302Z,96712
2022-10-04T06:26:50.873Z,96714
2022-10-04T06:27:50.959Z,96715
2022-10-04T06:28:50.890Z,96715
2022-10-04T06:29:50.957Z,96717
2022-10-04T06:30:50.973Z,96724
2022-10-04T06:31:53.392Z,96723
2022-10-04T06:32:50.881Z,96727
2022-10-04T06:33:50.890Z,96724
2022-10-04T06:34:50.895Z,96723
2022-10-04T06:35:50.894Z,96723
2022-10-04T06:36:50.910Z,96722
2022-10-04T06:37:50.935Z,96722
2022-10-04T06:38:50.913Z,96718
2022-10-04T06:39:50.917Z,96718
2022-10-04T06:41:50.917Z,96726
2022-10-04T06:42:50.921Z,96726
2022-10-04T06:43:50.945Z,96725
2022-10-04T06:44:50.920Z,96726
2022-10-04T06:45:50.948Z,96729
2022-10-04T06:46:50.912Z,96729
2022-10-04T06:48:50.985Z,96730
2022-10-04T06:49:50.931Z,96731
2022-10-04T06:50:50.943Z,96733
2022-10-04T06:51:50.927Z,96733
2022-10-04T06:52:50.957Z,96729
2022-10-04T06:53:50.941Z,96734
2022-10-04T06:54:50.998Z,96735
2022-10-04T06:55:50.951Z,96737
2022-10-04T06:56:50.982Z,96735
2022-10-04T06:57:50.950Z,96735
2022-10-04T06:58:50.974Z,96737
2022-10-04T06:59:50.974Z,96734
2022-10-04T07:00:51.043Z,96730
2022-10-04T07:01:51.035Z,96730
2022-10-04T07:02:51.345Z,96731
2022-10-04T07:03:51.703Z,96733
2022-10-04T07:05:07.687Z,96731
2022-10-04T07:05:50.978Z,96728
2022-10-04T07:06:51.024Z,96731
2022-10-04T07:07:50.950Z,96731
2022-10-04T07:08:50.984Z,96730
2022-10-04T07:09:50.996Z,96731
2022-10-04T07:10:50.970Z,96733
2022-10-04T07:11:50.984Z,96733
2022-10-04T07:12:51.019Z,96733
2022-10-04T07:13:50.975Z,96729
2022-10-04T07:14:51.002Z,96731
2022-10-04T07:15:51.055Z,96731
2022-10-04T07:16:51.016Z,96729
2022-10-04T07:17:51.008Z,96730
2022-10-04T07:18:51.037Z,96730
2022-10-04T07:19:50.999Z,96734
2022-10-04T07:20:51.012Z,96730
2022-10-04T07:21:51.013Z,96732
2022-10-04T07:22:51.014Z,96739
2022-10-04T07:23:51.008Z,96742
2022-10-04T07:24:51.066Z,96744
2022-10-04T07:25:51.025Z,96744
2022-10-04T07:26:51.016Z,96744
2022-10-04T07:28:51.020Z,96746
2022-10-04T07:29:51.030Z,96746
2022-10-04T07:30:51.164Z,96749
2022-10-04T07:31:51.028Z,96749
2022-10-04T07:32:51.039Z,96751
2022-10-04T07:33:51.040Z,96750
2022-10-04T07:34:51.044Z,96751
2022-10-04T07:35:51.054Z,96750
2022-10-04T07:36:51.103Z,96748
2022-10-04T07:37:51.062Z,96749
2022-10-04T07:38:51.042Z,96749
2022-10-04T07:39:51.577Z,96753
2022-10-04T07:40:51.070Z,96748
2022-10-04T07:41:51.082Z,96747
2022-10-04T07:42:51.079Z,96747
2022-10-04T07:43:51.049Z,96750
2022-10-04T07:44:51.045Z,96750
2022-10-04T07:45:51.153Z,96750
2022-10-04T07:46:51.095Z,96751
2022-10-04T07:47:51.062Z,96749
2022-10-04T07:48:51.123Z,96749
2022-10-04T07:49:51.095Z,96751
2022-10-04T07:50:51.090Z,96751
2022-10-04T07:51:51.103Z,96754
2022-10-04T07:52:51.096Z,96754
2022-10-04T07:53:51.118Z,96760
2022-10-04T07:54:51.136Z,96764
2022-10-04T07:55:51.111Z,96765
2022-10-04T07:56:51.107Z,96762
2022-10-04T07:58:51.103Z,96765
2022-10-04T07:59:51.191Z,96767
2022-10-04T08:02:51.353Z,96772
2022-10-04T08:03:51.180Z,96771
2022-10-04T08:04:51.130Z,96769
2022-10-04T08:05:51.166Z,96769
2022-10-04T08:06:51.144Z,96769
2022-10-04T08:07:51.128Z,96773
2022-10-04T08:08:51.119Z,96776
2022-10-04T08:09:51.142Z,96773
2022-10-04T08:10:54.224Z,96775
2022-10-04T08:11:51.200Z,96776
2022-10-04T08:12:51.134Z,96775
2022-10-04T08:13:51.137Z,96775
2022-10-04T08:14:51.183Z,96779
2022-10-04T08:15:51.243Z,96783
2022-10-04T08:16:51.872Z,96784
2022-10-04T08:18:51.162Z,96784
2022-10-04T08:19:51.154Z,96784
2022-10-04T08:20:51.172Z,96783
2022-10-04T08:21:51.170Z,96784
2022-10-04T08:22:51.165Z,96784
2022-10-04T08:23:51.190Z,96791
2022-10-04T08:24:53.502Z,96790
2022-10-04T08:25:51.168Z,96790
2022-10-04T08:26:51.177Z,96790
2022-10-04T08:27:51.414Z,96790
2022-10-04T08:28:51.188Z,96786
2022-10-04T08:29:51.167Z,96785
2022-10-04T08:30:51.225Z,96785
2022-10-04T08:31:51.189Z,96786
2022-10-04T08:32:51.189Z,96788
2022-10-04T08:33:51.228Z,96788
2022-10-04T08:34:51.193Z,96786
2022-10-04T08:35:51.204Z,96785
2022-10-04T08:36:51.185Z,96785
2022-10-04T08:37:51.210Z,96785
2022-10-04T08:38:51.206Z,96776
2022-10-04T08:39:51.226Z,96779
2022-10-04T08:40:51.216Z,96779
2022-10-04T08:41:51.220Z,96777
2022-10-04T08:42:51.206Z,96777
2022-10-04T08:43:51.225Z,96777
2022-10-04T08:44:51.276Z,96773
2022-10-04T08:46:51.309Z,96769
2022-10-04T08:47:51.226Z,96769
2022-10-04T08:48:51.238Z,96768
2022-10-04T08:49:51.215Z,96763
2022-10-04T08:50:51.286Z,96763
2022-10-04T08:51:51.264Z,96768
2022-10-04T08:52:51.235Z,96768
2022-10-04T08:53:52.089Z,96770
2022-10-04T08:54:51.231Z,96770
2022-10-04T08:55:51.233Z,96766
2022-10-04T08:56:51.311Z,96762
2022-10-04T08:57:51.230Z,96760
2022-10-04T08:58:51.273Z,96763
2022-10-04T08:59:51.244Z,96762
2022-10-04T09:00:51.229Z,96762
2022-10-04T09:01:51.355Z,96758
2022-10-04T09:02:51.383Z,96759
2022-10-04T09:03:51.257Z,96759
2022-10-04T09:04:51.278Z,96757
2022-10-04T09:05:51.274Z,96757
2022-10-04T09:06:51.275Z,96761
2022-10-04T09:07:51.283Z,96757
2022-10-04T09:08:51.308Z,96761
2022-10-04T09:09:51.305Z,96765
2022-10-04T09:10:51.293Z,96764
2022-10-04T09:11:51.293Z,96764
2022-10-04T09:12:51.306Z,96764
2022-10-04T09:13:51.292Z,96764
2022-10-04T09:14:51.347Z,96772
2022-10-04T09:15:51.446Z,96767
2022-10-04T09:16:51.300Z,96767
2022-10-04T09:17:51.308Z,96764
2022-10-04T09:18:51.304Z,96763
2022-10-04T09:19:51.314Z,96763
2022-10-04T09:20:51.364Z,96763
2022-10-04T09:21:51.300Z,96763
2022-10-04T09:22:51.317Z,96759
2022-10-04T09:23:51.323Z,96763
2022-10-04T09:24:51.324Z,96760
2022-10-04T09:25:51.313Z,96760
2022-10-04T09:26:51.394Z,96767
2022-10-04T09:27:55.035Z,96767
2022-10-04T09:28:51.315Z,96772
2022-10-04T09:29:51.325Z,96772
2022-10-04T09:30:52.414Z,96768
2022-10-04T09:31:51.347Z,96773
2022-10-04T09:32:51.366Z,96769
2022-10-04T09:33:51.346Z,96768
2022-10-04T09:34:51.346Z,96768
2022-10-04T09:35:51.361Z,96767
2022-10-04T09:36:51.348Z,96764
2022-10-04T09:37:51.363Z,96769
2022-10-04T09:39:01.236Z,96769
2022-10-04T09:39:51.361Z,96768
2022-10-04T09:40:51.375Z,96764
2022-10-04T09:41:51.357Z,96764
2022-10-04T09:42:51.362Z,96766
2022-10-04T09:43:51.362Z,96764
2022-10-04T09:44:51.411Z,96764
2022-10-04T09:45:51.370Z,96764
2022-10-04T09:46:56.182Z,96768
2022-10-04T09:47:51.374Z,96762
2022-10-04T09:48:51.380Z,96762
2022-10-04T09:49:51.402Z,96765
2022-10-04T09:50:51.423Z,96763
2022-10-04T09:51:51.400Z,96763
2022-10-04T09:52:51.392Z,96762
2022-10-04T09:53:51.389Z,96762
2022-10-04T09:54:51.399Z,96761
2022-10-04T09:55:51.386Z,96761
2022-10-04T09:56:51.429Z,96760
2022-10-04T09:57:51.386Z,96762
2022-10-04T09:58:51.408Z,96763
2022-10-04T09:59:51.393Z,96762
2022-10-04T10:00:51.420Z,96762
2022-10-04T10:01:51.497Z,96762
2022-10-04T10:02:51.513Z,96761
2022-10-04T10:03:51.429Z,96764
2022-10-04T10:04:51.406Z,96762
2022-10-04T10:05:51.426Z,96762
2022-10-04T10:06:51.428Z,96762
2022-10-04T10:07:52.656Z,96760
2022-10-04T10:09:51.431Z,96759
2022-10-04T10:10:51.440Z,96760
2022-10-04T10:11:51.440Z,96759
2022-10-04T10:12:51.418Z,96759
2022-10-04T10:13:51.463Z,96757
2022-10-04T10:14:51.449Z,96755
2022-10-04T10:15:51.459Z,96757
2022-10-04T10:16:51.444Z,96757
2022-10-04T10:17:51.453Z,96751
2022-10-04T10:18:51.842Z,96754
2022-10-04T10:19:51.496Z,96755
2022-10-04T10:20:51.469Z,96755
2022-10-04T10:21:51.476Z,96754
2022-10-04T10:22:51.479Z,96754
2022-10-04T10:23:51.450Z,96753
2022-10-04T10:24:54.856Z,96751
2022-10-04T10:25:51.520Z,96756
2022-10-04T10:26:51.485Z,96756
2022-10-04T10:27:51.586Z,96756
2022-10-04T10:28:51.480Z,96756
2022-10-04T10:29:51.487Z,96756
2022-10-04T10:30:51.552Z,96756
2022-10-04T10:31:51.598Z,96758
2022-10-04T10:32:51.509Z,96761
2022-10-04T10:33:51.499Z,96758
2022-10-04T10:34:51.500Z,96763
2022-10-04T10:35:51.513Z,96757
2022-10-04T10:36:51.503Z,96757
2022-10-04T10:37:51.546Z,96752
2022-10-04T10:38:51.530Z,96752
2022-10-04T10:39:51.522Z,96752
2022-10-04T10:40:51.518Z,96751
2022-10-04T10:41:51.529Z,96751
2022-10-04T10:43:51.554Z,96748
2022-10-04T10:44:52.864Z,96747
2022-10-04T10:45:51.535Z,96745
2022-10-04T10:46:51.570Z,96747
2022-10-04T10:47:51.543Z,96746
2022-10-04T10:48:51.536Z,96746
2022-10-04T10:49:51.569Z,96746
2022-10-04T10:50:51.559Z,96745
2022-10-04T10:51:51.542Z,96745
2022-10-04T10:52:51.565Z,96744
2022-10-04T10:53:51.529Z,96741
2022-10-04T10:54:51.559Z,96744
2022-10-04T10:55:51.594Z,96744
2022-10-04T10:56:51.556Z,96743
2022-10-04T10:57:51.571Z,96749
2022-10-04T10:58:51.550Z,96749
2022-10-04T10:59:51.565Z,96749
2022-10-04T11:00:51.570Z,96753
2022-10-04T11:01:51.738Z,96753
2022-10-04T11:02:51.681Z,96754
2022-10-04T11:03:51.723Z,96751
2022-10-04T11:04:51.590Z,96747
2022-10-04T11:05:51.572Z,96746
2022-10-04T11:06:51.551Z,96745
2022-10-04T11:08:51.592Z,96743
2022-10-04T11:09:51.581Z,96739
2022-10-04T11:10:52.101Z,96739
2022-10-04T11:11:51.570Z,96743
2022-10-04T11:12:51.609Z,96740
2022-10-04T11:13:51.599Z,96741
2022-10-04T11:15:51.731Z,96736
2022-10-04T11:16:51.595Z,96736
2022-10-04T11:17:51.622Z,96734
2022-10-04T11:18:51.611Z,96734
2022-10-04T11:19:51.594Z,96735
2022-10-04T11:20:51.613Z,96732
2022-10-04T11:21:53.160Z,96737
2022-10-04T11:22:51.613Z,96737
2022-10-04T11:23:51.615Z,96736
2022-10-04T11:24:51.601Z,96737
2022-10-04T11:25:51.632Z,96734
2022-10-04T11:26:51.652Z,96735
2022-10-04T11:27:54.382Z,96734
2022-10-04T11:28:51.622Z,96734
2022-10-04T11:29:51.629Z,96730
2022-10-04T11:30:51.720Z,96730
2022-10-04T11:31:51.648Z,96727
2022-10-04T11:32:51.643Z,96724
2022-10-04T11:33:51.677Z,96724
2022-10-04T11:34:51.641Z,96728
2022-10-04T11:35:51.643Z,96725
2022-10-04T11:36:51.643Z,96729
2022-10-04T11:37:51.641Z,96728
2022-10-04T11:38:51.675Z,96730
2022-10-04T11:40:51.676Z,96730
2022-10-04T11:41:51.644Z,96729
2022-10-04T11:42:51.646Z,96732
2022-10-04T11:43:51.671Z,96733
2022-10-04T11:44:51.667Z,96730
2022-10-04T11:45:51.685Z,96729
2022-10-04T11:46:51.901Z,96724
2022-10-04T11:47:51.677Z,96723
2022-10-04T11:48:51.681Z,96725
2022-10-04T11:49:51.682Z,96721
2022-10-04T11:50:51.698Z,96715
2022-10-04T11:51:51.672Z,96715
2022-10-04T11:52:51.790Z,96715
2022-10-04T11:53:51.753Z,96715
2022-10-04T11:54:51.710Z,96716
2022-10-04T11:55:51.723Z,96713
2022-10-04T11:56:51.686Z,96713
2022-10-04T11:57:51.707Z,96714
2022-10-04T11:58:53.473Z,96714
2022-10-04T11:59:51.744Z,96714
2022-10-04T12:00:51.760Z,96712
2022-10-04T12:01:51.720Z,96710
2022-10-04T12:02:51.724Z,96708
2022-10-04T12:03:52.028Z,96711
2022-10-04T12:05:51.810Z,96708
2022-10-04T12:06:51.720Z,96708
2022-10-04T12:07:51.772Z,96708
2022-10-04T12:08:51.759Z,96708
2022-10-04T12:09:51.770Z,96706
2022-10-04T12:10:51.774Z,96702
2022-10-04T12:11:51.784Z,96702
2022-10-04T12:12:51.744Z,96700
2022-10-04T12:13:51.780Z,96693
2022-10-04T12:14:51.767Z,96689
2022-10-04T12:15:51.813Z,96691
2022-10-04T12:16:51.780Z,96689
2022-10-04T12:17:51.807Z,96689
2022-10-04T12:18:51.759Z,96686
2022-10-04T12:19:51.782Z,96686
2022-10-04T12:20:51.784Z,96688
2022-10-04T12:21:51.783Z,96686
2022-10-04T12:23:51.839Z,96683
2022-10-04T12:24:51.792Z,96682
2022-10-04T12:25:51.786Z,96682
2022-10-04T12:26:51.802Z,96682
2022-10-04T12:27:51.843Z,96682
2022-10-04T12:28:51.791Z,96681
2022-10-04T12:29:51.827Z,96685
2022-10-04T12:30:51.808Z,96683
2022-10-04T12:31:51.835Z,96683
2022-10-04T12:32:56.902Z,96679
2022-10-04T12:34:51.826Z,96680
2022-10-04T12:35:53.714Z,96679
2022-10-04T12:36:51.830Z,96681
2022-10-04T12:37:51.794Z,96681
2022-10-04T12:38:51.818Z,96675
2022-10-04T12:39:51.806Z,96673
2022-10-04T12:40:51.835Z,96674
2022-10-04T12:41:51.884Z,96673
2022-10-04T12:42:51.836Z,96673
2022-10-04T12:44:51.861Z,96673
2022-10-04T12:45:51.904Z,96673
2022-10-04T12:46:51.845Z,96673
2022-10-04T12:47:51.867Z,96670
2022-10-04T12:49:51.846Z,96671
2022-10-04T12:50:51.844Z,96669
2022-10-04T12:51:51.841Z,96666
2022-10-04T12:52:51.849Z,96661
2022-10-04T12:54:51.885Z,96663
2022-10-04T12:55:51.845Z,96663
2022-10-04T12:57:51.863Z,96660
2022-10-04T12:58:51.864Z,96659
2022-10-04T12:59:51.889Z,96659
2022-10-04T13:00:51.947Z,96655
2022-10-04T13:01:51.950Z,96661
2022-10-04T13:02:51.873Z,96656
2022-10-04T13:03:51.872Z,96656
2022-10-04T13:04:51.858Z,96658
2022-10-04T13:05:51.879Z,96657
2022-10-04T13:06:51.958Z,96650
2022-10-04T13:07:51.872Z,96651
2022-10-04T13:10:19.333Z,96652
2022-10-04T13:10:51.905Z,96654
2022-10-04T13:11:51.896Z,96654
2022-10-04T13:12:53.995Z,96656
2022-10-04T13:13:51.908Z,96658
2022-10-04T13:14:51.894Z,96658
2022-10-04T13:17:51.906Z,96665
2022-10-04T13:18:51.951Z,96664
2022-10-04T13:19:51.917Z,96665
2022-10-04T13:21:51.924Z,96665
2022-10-04T13:22:56.918Z,96663
2022-10-04T13:23:51.938Z,96663
2022-10-04T13:24:51.966Z,96664
2022-10-04T13:25:51.958Z,96656
2022-10-04T13:26:51.931Z,96656
2022-10-04T13:27:52.001Z,96656
2022-10-04T13:28:51.948Z,96655
2022-10-04T13:29:51.962Z,96661
2022-10-04T13:30:51.961Z,96661
2022-10-04T13:31:52.108Z,96662
2022-10-04T13:32:51.957Z,96662
2022-10-04T13:33:51.951Z,96659
2022-10-04T13:34:51.943Z,96660
2022-10-04T13:35:51.939Z,96660
2022-10-04T13:38:52.027Z,96652
2022-10-04T13:39:51.973Z,96652
2022-10-04T13:41:51.991Z,96651
2022-10-04T13:42:51.982Z,96653
2022-10-04T13:43:51.973Z,96648
2022-10-04T13:44:52.027Z,96653
2022-10-04T13:45:52.043Z,96650
2022-10-04T13:47:51.981Z,96647
2022-10-04T13:48:52.003Z,96651
2022-10-04T13:49:54.279Z,96650
2022-10-04T13:50:52.001Z,96650
2022-10-04T13:51:52.007Z,96647
2022-10-04T13:52:52.009Z,96647
2022-10-04T13:53:54.143Z,96648
2022-10-04T13:54:52.014Z,96648
2022-10-04T13:55:52.106Z,96651
2022-10-04T13:56:51.989Z,96651
2022-10-04T13:57:52.015Z,96645
2022-10-04T13:58:52.007Z,96650
2022-10-04T13:59:52.025Z,96650
2022-10-04T14:00:52.097Z,96650
2022-10-04T14:02:52.129Z,96654
2022-10-04T14:03:52.018Z,96656
2022-10-04T14:04:52.014Z,96654
2022-10-04T14:05:52.007Z,96656
2022-10-04T14:06:52.026Z,96654
2022-10-04T14:07:52.049Z,96661
2022-10-04T14:09:52.060Z,96660
2022-10-04T14:10:52.042Z,96660
2022-10-04T14:11:52.057Z,96655
2022-10-04T14:12:52.056Z,96655
2022-10-04T14:13:52.033Z,96652
2022-10-04T14:14:52.057Z,96654
2022-10-04T14:15:52.110Z,96659
2022-10-04T14:17:52.079Z,96657
2022-10-04T14:18:52.070Z,96656
2022-10-04T14:19:52.073Z,96656
2022-10-04T14:20:52.064Z,96655
2022-10-04T14:21:52.100Z,96650
2022-10-04T14:22:52.069Z,96650
2022-10-04T14:23:52.082Z,96654
2022-10-04T14:24:52.077Z,96653
2022-10-04T14:25:52.109Z,96652
2022-10-04T14:26:54.507Z,96653
2022-10-04T14:27:52.131Z,96653
2022-10-04T14:28:52.095Z,96657
2022-10-04T14:29:52.078Z,96658
2022-10-04T14:30:52.096Z,96658
2022-10-04T14:31:52.173Z,96653
2022-10-04T14:32:52.133Z,96654
2022-10-04T14:33:52.102Z,96650
2022-10-04T14:34:52.116Z,96651
2022-10-04T14:35:52.104Z,96652
2022-10-04T14:36:52.113Z,96651
2022-10-04T14:37:52.194Z,96653
2022-10-04T14:38:52.132Z,96652
2022-10-04T14:39:52.133Z,96651
2022-10-04T14:40:52.139Z,96651
2022-10-04T14:41:52.125Z,96649
2022-10-04T14:42:52.153Z,96653
2022-10-04T14:43:52.176Z,96653
2022-10-04T14:45:52.241Z,96655
2022-10-04T14:46:52.156Z,96652
2022-10-04T14:47:52.137Z,96652
2022-10-04T14:49:53.951Z,96649
2022-10-04T14:50:52.141Z,96652
2022-10-04T14:51:52.142Z,96651
2022-10-04T14:52:52.173Z,96651
2022-10-04T14:53:52.170Z,96653
2022-10-04T14:55:52.207Z,96650
2022-10-04T14:56:52.166Z,96650
2022-10-04T14:57:52.191Z,96655
2022-10-04T14:58:52.192Z,96655
2022-10-04T14:59:52.174Z,96652
2022-10-04T15:00:52.260Z,96649
2022-10-04T15:01:52.215Z,96649
2022-10-04T15:02:52.192Z,96651
2022-10-04T15:03:54.764Z,96649
2022-10-04T15:04:52.205Z,96649
2022-10-04T15:05:52.191Z,96646
2022-10-04T15:06:52.193Z,96646
2022-10-04T15:07:52.243Z,96649
2022-10-04T15:08:52.193Z,96650
2022-10-04T15:09:52.192Z,96652
2022-10-04T15:10:52.215Z,96652
2022-10-04T15:12:14.386Z,96651
2022-10-04T15:13:11.224Z,96652
2022-10-04T15:13:52.243Z,96648
2022-10-04T15:14:52.209Z,96648
2022-10-04T15:15:52.317Z,96647